Time;durP1;ratioP1;P1;durP2;ratioP2;P2;SDS_P1;SDS_P2;PMS_P1;PMS_P2;Temp;Humidity;BMP_temperature;BMP_pressure;BME280_temperature;BME280_humidity;BME280_pressure;Samples;Min_cycle;Max_cycle;Signal;HPM_P1;HPM_P2
2021/06/11 00:00:37;;;;;;;16.13;14.15;;;;;;;19.04;73.56;100101.53;2214106;40;20053;-80
2021/06/11 00:02:08;;;;;;;12.10;10.63;;;;;;;19.03;73.73;100107.97;2215373;40;20041;-81
2021/06/11 00:03:40;;;;;;;12.02;10.73;;;;;;;19.04;73.72;100115.06;2214102;40;20049;-81
2021/06/11 00:05:13;;;;;;;11.50;10.02;;;;;;;19.06;73.61;100104.88;2215618;40;20073;-80
2021/06/11 00:06:44;;;;;;;15.10;11.63;;;;;;;19.06;73.40;100106.72;2214186;40;20053;-80
2021/06/11 00:08:15;;;;;;;12.63;9.93;;;;;;;19.02;73.73;100114.41;2215843;40;20104;-80
2021/06/11 00:09:47;;;;;;;12.00;10.30;;;;;;;18.99;73.73;100106.69;2214263;40;20060;-81
2021/06/11 00:11:18;;;;;;;12.15;9.02;;;;;;;18.99;73.66;100106.69;2215404;40;20040;-80
2021/06/11 00:12:49;;;;;;;12.90;9.93;;;;;;;18.98;73.89;100115.88;2214307;40;20049;-79
2021/06/11 00:14:20;;;;;;;11.55;10.30;;;;;;;18.95;73.72;100105.44;2215276;40;20038;-81
2021/06/11 00:15:51;;;;;;;11.77;9.98;;;;;;;18.93;73.95;100107.50;2213961;40;20265;-80
2021/06/11 00:17:23;;;;;;;11.85;8.57;;;;;;;18.93;74.11;100107.50;2218374;40;20037;-82
2021/06/11 00:18:54;;;;;;;10.82;9.02;;;;;;;18.95;74.20;100108.13;2214210;40;20056;-80
2021/06/11 00:20:27;;;;;;;10.35;8.48;;;;;;;18.95;74.26;100111.66;2213438;40;20046;-81
2021/06/11 00:22:00;;;;;;;9.00;7.30;;;;;;;18.97;74.10;100114.19;2213467;40;20042;-80
2021/06/11 00:23:31;;;;;;;12.27;9.10;;;;;;;18.98;73.91;100105.84;2223250;40;20025;-81
2021/06/11 00:25:03;;;;;;;15.07;10.55;;;;;;;18.93;74.20;100108.34;2218968;40;20044;-77
2021/06/11 00:26:34;;;;;;;9.65;7.93;;;;;;;18.91;74.23;100112.22;2217812;40;20040;-79
2021/06/11 00:28:06;;;;;;;11.32;9.38;;;;;;;18.91;74.35;100110.38;2201961;40;20037;-81
2021/06/11 00:29:37;;;;;;;10.88;8.90;;;;;;;18.91;74.21;100118.50;2214597;40;20206;-82
2021/06/11 00:31:08;;;;;;;11.63;10.43;;;;;;;18.90;74.57;100114.13;2214337;39;20033;-82
2021/06/11 00:32:40;;;;;;;9.80;8.63;;;;;;;18.89;74.63;100117.03;2215934;40;20021;-81
2021/06/11 00:34:11;;;;;;;10.75;8.70;;;;;;;18.91;74.88;100114.94;2219755;40;20385;-78
2021/06/11 00:35:44;;;;;;;11.73;9.07;;;;;;;18.92;74.84;100108.50;2221516;40;20431;-80
2021/06/11 00:37:15;;;;;;;10.77;8.70;;;;;;;18.94;74.94;100111.88;2217597;39;20051;-80
2021/06/11 00:38:46;;;;;;;12.88;10.25;;;;;;;18.93;75.34;100112.91;2217609;40;20031;-81
2021/06/11 00:40:18;;;;;;;12.48;8.30;;;;;;;18.91;75.45;100115.78;2215802;40;20101;-81
2021/06/11 00:41:49;;;;;;;13.57;9.43;;;;;;;18.85;75.65;100106.59;2216117;40;20064;-81
2021/06/11 00:43:20;;;;;;;10.63;9.27;;;;;;;18.85;75.81;100122.84;2220270;40;20049;-80
2021/06/11 00:44:51;;;;;;;11.20;9.57;;;;;;;18.79;75.49;100118.22;2222060;40;20080;-81
2021/06/11 00:46:23;;;;;;;10.90;8.57;;;;;;;18.74;75.75;100115.25;2221471;39;20138;-80
2021/06/11 00:47:54;;;;;;;11.73;9.23;;;;;;;18.73;75.80;100110.03;2221479;40;20033;-80
2021/06/11 00:49:25;;;;;;;19.75;9.00;;;;;;;18.69;75.85;100113.13;2220366;40;20129;-80
2021/06/11 00:50:58;;;;;;;10.60;9.50;;;;;;;18.69;76.06;100117.72;2222514;40;20082;-80
2021/06/11 00:52:31;;;;;;;10.60;8.43;;;;;;;18.67;76.11;100117.91;2220550;40;20068;-79
2021/06/11 00:54:03;;;;;;;17.27;11.55;;;;;;;18.65;76.11;100113.72;2223500;40;20093;-81
2021/06/11 00:55:35;;;;;;;13.18;10.15;;;;;;;18.59;76.32;100117.22;2219331;39;20044;-80
2021/06/11 00:57:06;;;;;;;11.27;8.73;;;;;;;18.60;76.06;100118.91;2222437;40;20044;-80
2021/06/11 00:58:38;;;;;;;11.32;8.80;;;;;;;18.61;76.21;100107.84;2215073;40;20088;-80
2021/06/11 01:00:10;;;;;;;10.07;8.43;;;;;;;18.63;75.90;100107.66;2215820;40;20033;-78
2021/06/11 01:01:42;;;;;;;11.45;9.90;;;;;;;18.65;75.87;100113.72;2219584;40;20042;-79
2021/06/11 01:03:13;;;;;;;11.25;8.88;;;;;;;18.63;75.95;100108.50;2211360;40;20042;-80
2021/06/11 01:04:44;;;;;;;13.45;9.10;;;;;;;18.65;75.95;100116.41;2212598;40;20057;-81
2021/06/11 01:06:19;;;;;;;11.15;9.95;;;;;;;18.63;75.95;100113.06;2215471;40;20026;-81
2021/06/11 01:07:52;;;;;;;13.05;10.90;;;;;;;18.59;76.12;100118.03;2217502;40;20119;-80
2021/06/11 01:09:26;;;;;;;11.40;10.02;;;;;;;18.52;76.25;100117.16;2216856;40;20025;-81
2021/06/11 01:10:58;;;;;;;11.95;9.98;;;;;;;18.50;76.47;100117.38;2223321;40;20045;-81
2021/06/11 01:12:30;;;;;;;13.20;11.90;;;;;;;18.46;76.46;100113.34;2219677;40;20980;-81
2021/06/11 01:14:01;;;;;;;12.70;10.73;;;;;;;18.44;76.26;100118.13;2223148;40;20103;-80
2021/06/11 01:15:32;;;;;;;12.55;9.95;;;;;;;18.45;76.16;100111.69;2217819;39;20111;-78
2021/06/11 01:17:04;;;;;;;11.60;9.65;;;;;;;18.48;76.20;100108.59;2220033;40;20419;-79
2021/06/11 01:18:35;;;;;;;10.35;8.65;;;;;;;18.49;76.29;100106.72;2191142;39;20054;-81
2021/06/11 01:20:09;;;;;;;10.93;8.65;;;;;;;18.54;76.07;100107.81;2223481;40;20037;-81
2021/06/11 01:21:50;;;;;;;13.43;10.27;;;;;;;18.55;76.40;100112.19;2219917;40;20381;-80
2021/06/11 01:23:40;;;;;;;;;;;;;;;18.45;76.45;100108.97;2217221;40;20042;-81
2021/06/11 01:25:14;;;;;;;12.90;9.30;;;;;;;18.40;77.13;100111.44;2217679;39;19990;-81
2021/06/11 01:26:49;;;;;;;11.88;8.98;;;;;;;18.41;77.00;100102.28;2222022;40;20033;-80
2021/06/11 01:28:22;;;;;;;9.93;8.85;;;;;;;18.39;76.86;100116.00;2221344;40;20041;-79
2021/06/11 01:29:57;;;;;;;12.30;7.82;;;;;;;18.37;77.07;100107.22;2217936;40;20369;-79
2021/06/11 01:31:31;;;;;;;10.85;9.68;;;;;;;18.37;76.76;100106.41;2215817;40;20348;-79
2021/06/11 01:33:04;;;;;;;8.77;7.22;;;;;;;18.33;77.05;100107.81;2220011;40;20037;-80
2021/06/11 01:34:38;;;;;;;8.70;7.60;;;;;;;18.34;76.75;100109.50;2222077;40;20123;-80
2021/06/11 01:36:11;;;;;;;9.05;7.65;;;;;;;18.33;76.85;100114.09;2218195;40;20452;-80
2021/06/11 01:37:44;;;;;;;9.68;7.28;;;;;;;18.32;76.57;100111.59;2224442;40;20110;-80
2021/06/11 01:39:17;;;;;;;15.18;8.98;;;;;;;18.31;76.30;100116.13;2221281;39;20040;-80
2021/06/11 01:40:51;;;;;;;10.98;7.55;;;;;;;18.28;76.34;100115.69;2217305;40;20056;-79
2021/06/11 01:42:25;;;;;;;13.45;9.25;;;;;;;18.27;76.32;100122.13;2216507;40;20045;-80
2021/06/11 01:43:57;;;;;;;14.35;7.85;;;;;;;18.23;76.48;100117.09;2222198;40;20452;-80
2021/06/11 01:45:29;;;;;;;11.10;7.78;;;;;;;18.22;76.75;100115.44;2222064;40;20029;-80
2021/06/11 01:47:01;;;;;;;10.50;8.40;;;;;;;18.18;76.47;100114.16;2221160;40;20049;-80
2021/06/11 01:48:32;;;;;;;12.18;9.55;;;;;;;18.13;76.48;100116.59;2221512;40;20052;-80
2021/06/11 01:50:06;;;;;;;13.88;9.07;;;;;;;18.09;76.44;100112.59;2217526;40;20061;-80
2021/06/11 01:51:38;;;;;;;11.82;9.13;;;;;;;18.06;76.74;100112.97;2215894;40;20049;-80
2021/06/11 01:53:12;;;;;;;7.97;6.68;;;;;;;18.04;76.74;100112.34;2222285;40;20025;-80
2021/06/11 01:54:46;;;;;;;12.68;7.57;;;;;;;18.01;76.99;100115.44;2221945;40;20030;-80
2021/06/11 01:56:19;;;;;;;9.15;6.82;;;;;;;18.00;76.90;100113.75;2217589;40;20030;-80
2021/06/11 01:57:53;;;;;;;12.63;8.60;;;;;;;18.00;76.64;100116.47;2219571;39;20057;-80
2021/06/11 01:59:25;;;;;;;9.77;6.72;;;;;;;17.95;76.69;100111.59;2216212;40;20041;-79
2021/06/11 02:00:57;;;;;;;9.52;7.97;;;;;;;17.93;76.81;100111.78;2188910;40;20064;-81
2021/06/11 02:02:29;;;;;;;10.18;8.23;;;;;;;17.87;76.72;100112.53;2218265;40;20186;-79
2021/06/11 02:04:02;;;;;;;9.32;6.97;;;;;;;17.84;76.59;100112.94;2216380;40;20617;-80
2021/06/11 02:05:34;;;;;;;12.00;8.43;;;;;;;17.83;76.71;100118.53;2218690;40;20110;-80
2021/06/11 02:07:08;;;;;;;11.13;8.77;;;;;;;17.78;76.84;100110.97;2207665;40;20037;-81
2021/06/11 02:08:40;;;;;;;13.05;9.82;;;;;;;17.72;77.12;100114.47;2215716;40;20075;-80
2021/06/11 02:10:12;;;;;;;11.23;7.95;;;;;;;17.62;77.11;100112.88;2215326;40;20041;-81
2021/06/11 02:11:44;;;;;;;12.75;9.40;;;;;;;17.57;77.60;100112.59;2217329;40;20053;-81
2021/06/11 02:13:17;;;;;;;11.07;7.60;;;;;;;17.53;77.66;100108.63;2215330;40;20045;-82
2021/06/11 02:14:48;;;;;;;11.55;8.02;;;;;;;17.54;77.80;100109.44;2217620;40;20037;-80
2021/06/11 02:16:23;;;;;;;8.52;6.78;;;;;;;17.59;77.70;100115.13;2215824;40;20068;-80
2021/06/11 02:17:55;;;;;;;12.25;8.43;;;;;;;17.63;77.61;100116.41;2210913;40;20038;-80
2021/06/11 02:19:27;;;;;;;8.50;7.35;;;;;;;17.65;77.49;100118.94;2210702;40;20041;-80
2021/06/11 02:20:59;;;;;;;10.02;6.95;;;;;;;17.64;77.35;100115.41;2213064;40;20022;-81
2021/06/11 02:22:30;;;;;;;12.13;7.85;;;;;;;17.62;77.63;100104.78;2218328;39;20025;-80
2021/06/11 02:24:01;;;;;;;12.82;8.10;;;;;;;17.61;77.51;100111.22;2222083;40;20053;-81
2021/06/11 02:25:33;;;;;;;10.40;7.78;;;;;;;17.57;77.65;100109.06;2221957;39;20041;-79
2021/06/11 02:27:05;;;;;;;17.20;8.93;;;;;;;17.58;77.59;100116.16;2220902;40;20029;-79
2021/06/11 02:28:38;;;;;;;12.15;6.82;;;;;;;17.57;77.62;100107.19;2220845;39;20040;-79
2021/06/11 02:30:11;;;;;;;9.10;7.55;;;;;;;17.57;77.57;100120.72;2220004;39;20029;-81
2021/06/11 02:31:43;;;;;;;9.93;7.47;;;;;;;17.57;77.54;100123.41;2221972;40;21608;-80
2021/06/11 02:33:14;;;;;;;10.30;7.95;;;;;;;17.53;77.55;100108.63;2220305;39;20048;-80
2021/06/11 02:34:46;;;;;;;12.25;8.68;;;;;;;17.52;77.60;100128.56;2209769;40;20046;-80
2021/06/11 02:36:17;;;;;;;12.05;8.85;;;;;;;17.51;77.83;100121.47;2208195;40;20090;-79
2021/06/11 02:37:48;;;;;;;11.82;8.15;;;;;;;17.50;77.64;100122.50;2209363;40;20042;-80
2021/06/11 02:39:20;;;;;;;8.23;6.97;;;;;;;17.51;77.50;100121.47;2207663;40;20038;-79
2021/06/11 02:40:52;;;;;;;11.02;7.60;;;;;;;17.45;77.64;100127.66;2209346;40;20038;-79
2021/06/11 02:42:30;;;;;;;13.18;8.65;;;;;;;17.42;78.00;100122.59;2208732;40;20030;-79
2021/06/11 02:44:05;;;;;;;10.23;8.50;;;;;;;17.38;77.82;100121.31;2208594;40;20100;-78
2021/06/11 02:45:43;;;;;;;15.75;8.80;;;;;;;17.34;77.85;100120.00;2167955;40;20047;-79
2021/06/11 02:47:19;;;;;;;9.82;6.93;;;;;;;17.31;78.04;100121.22;2210937;40;20033;-79
2021/06/11 02:48:54;;;;;;;12.10;7.53;;;;;;;17.33;78.00;100123.72;2216678;39;20059;-79
2021/06/11 02:50:31;;;;;;;9.52;7.50;;;;;;;17.33;77.72;100123.72;2219302;40;20044;-78
2021/06/11 02:52:06;;;;;;;10.68;7.93;;;;;;;17.28;78.00;100119.75;2216012;39;20045;-79
2021/06/11 02:53:41;;;;;;;8.68;7.00;;;;;;;17.26;77.95;100119.09;2212985;40;20037;-78
2021/06/11 02:55:16;;;;;;;11.05;8.30;;;;;;;17.25;78.09;100117.41;2211407;40;20071;-78
2021/06/11 02:56:50;;;;;;;15.70;9.50;;;;;;;17.24;78.27;100123.84;2214589;40;20127;-80
2021/06/11 02:58:25;;;;;;;10.60;7.45;;;;;;;17.20;78.17;100113.59;2213642;40;20067;-80
2021/06/11 03:00:04;;;;;;;10.35;7.32;;;;;;;17.18;78.16;100113.78;2219488;40;20042;-83
2021/06/11 03:01:40;;;;;;;10.55;8.32;;;;;;;17.18;78.37;100116.50;2216338;40;20049;-83
2021/06/11 03:03:17;;;;;;;10.00;7.82;;;;;;;17.17;77.86;100114.81;2214728;40;20042;-85
2021/06/11 03:04:49;;;;;;;11.95;8.45;;;;;;;17.12;78.00;100128.88;2219463;40;20103;-81
2021/06/11 03:06:23;;;;;;;12.55;9.43;;;;;;;17.10;78.36;100124.66;2220382;40;20033;-79
2021/06/11 03:07:57;;;;;;;10.32;8.10;;;;;;;17.07;78.14;100119.66;2212579;40;20691;-82
2021/06/11 03:09:29;;;;;;;14.35;7.97;;;;;;;17.05;78.47;100122.50;2209437;40;20048;-82
2021/06/11 03:11:06;;;;;;;9.60;7.15;;;;;;;17.08;78.14;100126.72;2216365;40;20040;-78
2021/06/11 03:12:38;;;;;;;10.20;8.10;;;;;;;17.08;78.22;100121.31;2221976;39;20659;-86
2021/06/11 03:14:11;;;;;;;10.20;7.35;;;;;;;17.07;78.43;100131.28;2226705;40;20044;-84
2021/06/11 03:15:44;;;;;;;11.80;7.72;;;;;;;17.08;78.34;100127.56;2221120;39;20061;-79
2021/06/11 03:17:18;;;;;;;8.95;7.13;;;;;;;17.09;78.34;100128.41;2215620;40;20045;-79
2021/06/11 03:18:54;;;;;;;10.05;7.82;;;;;;;17.09;78.12;100123.00;2216310;40;20045;-79
2021/06/11 03:20:31;;;;;;;9.77;6.82;;;;;;;17.11;78.31;100129.03;2215478;40;20051;-80
2021/06/11 03:22:08;;;;;;;12.70;7.53;;;;;;;17.07;78.28;100125.88;2209286;39;20058;-80
2021/06/11 03:23:44;;;;;;;10.32;6.60;;;;;;;17.09;78.24;100128.41;2209790;40;20037;-79
2021/06/11 03:25:20;;;;;;;11.73;8.23;;;;;;;17.10;78.05;100124.66;2207975;40;20126;-80
2021/06/11 03:26:56;;;;;;;10.68;7.82;;;;;;;17.08;78.36;100122.16;2212179;40;20029;-79
2021/06/11 03:28:33;;;;;;;10.50;7.38;;;;;;;17.06;77.99;100131.47;2218609;40;20041;-78
2021/06/11 03:30:08;;;;;;;13.60;7.63;;;;;;;17.02;78.22;100132.84;2220079;40;20030;-79
2021/06/11 03:31:46;;;;;;;8.93;6.95;;;;;;;16.98;78.13;100124.28;2214164;40;20056;-78
2021/06/11 03:33:21;;;;;;;12.32;8.38;;;;;;;16.99;78.27;100124.13;2215217;40;20022;-78
2021/06/11 03:34:54;;;;;;;11.13;8.85;;;;;;;16.97;78.12;100136.97;2218297;40;20033;-80
2021/06/11 03:36:30;;;;;;;11.82;7.30;;;;;;;16.95;78.45;100130.91;2217293;39;20054;-80
2021/06/11 03:38:04;;;;;;;12.73;8.65;;;;;;;16.96;78.37;100127.19;2222165;40;20317;-80
2021/06/11 03:39:41;;;;;;;14.48;8.95;;;;;;;16.96;78.29;100135.28;2222682;39;20045;-80
2021/06/11 03:41:14;;;;;;;12.90;9.82;;;;;;;16.92;78.44;100136.63;2222610;40;20028;-80
2021/06/11 03:42:46;;;;;;;12.73;9.27;;;;;;;16.88;78.52;100137.19;2222527;39;20037;-80
2021/06/11 03:44:19;;;;;;;13.50;9.48;;;;;;;16.84;78.61;100142.13;2223355;40;20390;-80
2021/06/11 03:45:52;;;;;;;12.43;8.75;;;;;;;16.79;78.74;100139.13;2223512;39;20084;-80
2021/06/11 03:47:27;;;;;;;14.45;9.45;;;;;;;16.75;78.87;100135.97;2219670;40;20093;-80
2021/06/11 03:49:00;;;;;;;14.80;10.20;;;;;;;16.76;79.00;100134.09;2213422;40;20044;-80
2021/06/11 03:50:33;;;;;;;10.60;8.00;;;;;;;16.73;79.10;100134.44;2217867;40;20579;-80
2021/06/11 03:52:04;;;;;;;11.75;9.25;;;;;;;16.77;79.09;100138.47;2214287;40;20098;-80
2021/06/11 03:53:38;;;;;;;14.15;9.38;;;;;;;16.75;79.06;100127.88;2217350;40;20131;-80
2021/06/11 03:55:16;;;;;;;14.80;7.95;;;;;;;16.75;78.98;100124.31;2209770;40;20057;-80
2021/06/11 03:56:51;;;;;;;12.80;8.48;;;;;;;16.78;79.22;100137.47;2218503;40;20091;-79
2021/06/11 03:58:26;;;;;;;12.00;7.85;;;;;;;16.80;79.04;100138.94;2160261;39;20043;-80
2021/06/11 03:59:59;;;;;;;11.05;8.15;;;;;;;16.83;78.94;100135.88;2211686;40;20034;-80
2021/06/11 04:01:36;;;;;;;11.68;8.23;;;;;;;16.86;79.08;100136.53;2216383;40;20049;-80
2021/06/11 04:03:09;;;;;;;11.77;9.05;;;;;;;16.88;78.90;100138.03;2218271;40;20485;-79
2021/06/11 04:04:40;;;;;;;9.85;7.97;;;;;;;16.87;78.69;100125.56;2219804;40;20049;-80
2021/06/11 04:06:16;;;;;;;9.80;7.72;;;;;;;16.89;78.68;100128.91;2223147;40;20060;-80
2021/06/11 04:07:53;;;;;;;12.35;8.73;;;;;;;16.92;78.89;100128.53;2222222;40;20025;-80
2021/06/11 04:09:29;;;;;;;12.45;8.95;;;;;;;16.92;78.86;100136.63;2225226;39;20335;-80
2021/06/11 04:11:02;;;;;;;13.43;8.05;;;;;;;16.90;78.93;100140.53;2223376;40;20037;-80
2021/06/11 04:12:39;;;;;;;8.80;7.53;;;;;;;16.92;78.52;100136.63;2220960;39;20043;-80
2021/06/11 04:14:15;;;;;;;12.77;7.93;;;;;;;16.95;78.75;100144.41;2223487;40;20479;-80
2021/06/11 04:15:50;;;;;;;9.48;7.90;;;;;;;16.99;78.39;100140.31;2217346;40;20442;-80
2021/06/11 04:17:26;;;;;;;12.70;7.28;;;;;;;17.03;78.39;100134.53;2221446;40;20029;-80
2021/06/11 04:19:01;;;;;;;12.88;7.95;;;;;;;17.07;78.32;100135.84;2217305;40;20320;-79
2021/06/11 04:20:33;;;;;;;10.75;7.70;;;;;;;17.08;78.07;100141.06;2222248;40;20187;-82
2021/06/11 04:22:05;;;;;;;9.40;7.90;;;;;;;17.11;78.02;100142.53;2223389;39;20048;-80
2021/06/11 04:23:40;;;;;;;12.70;8.50;;;;;;;17.14;77.80;100142.19;2225381;40;20030;-79
2021/06/11 04:25:15;;;;;;;8.05;6.80;;;;;;;17.15;77.91;100141.16;2220435;39;20044;-80
2021/06/11 04:26:48;;;;;;;12.52;8.38;;;;;;;17.16;77.89;100142.84;2225094;40;20216;-80
2021/06/11 04:28:20;;;;;;;15.82;8.75;;;;;;;17.15;78.18;100141.16;2222689;39;20044;-79
2021/06/11 04:29:51;;;;;;;9.88;7.78;;;;;;;17.16;77.88;100142.84;2224835;40;20298;-79
2021/06/11 04:31:22;;;;;;;15.55;9.98;;;;;;;17.13;78.10;100146.75;2217970;40;20041;-79
2021/06/11 04:32:54;;;;;;;12.07;8.10;;;;;;;17.07;77.97;100142.06;2218916;40;20041;-80
2021/06/11 04:34:27;;;;;;;11.02;8.52;;;;;;;17.09;78.11;100144.59;2223139;40;20037;-79
2021/06/11 04:35:59;;;;;;;15.63;9.02;;;;;;;17.11;78.03;100134.44;2221170;40;20063;-79
2021/06/11 04:37:30;;;;;;;10.57;7.65;;;;;;;17.11;78.17;100147.94;2217414;39;20040;-78
2021/06/11 04:39:04;;;;;;;11.15;7.72;;;;;;;17.15;77.95;100143.84;2218434;40;20029;-80
2021/06/11 04:40:35;;;;;;;16.65;8.95;;;;;;;17.18;78.17;100142.66;2216778;40;20053;-80
2021/06/11 04:42:07;;;;;;;11.45;7.55;;;;;;;17.21;77.91;100145.81;2218275;40;20053;-78
2021/06/11 04:43:37;;;;;;;9.85;7.85;;;;;;;17.26;77.94;100145.25;2217151;39;20053;-78
2021/06/11 04:45:10;;;;;;;9.50;7.03;;;;;;;17.29;77.36;100150.28;2218186;40;20042;-79
2021/06/11 04:46:42;;;;;;;11.60;8.48;;;;;;;17.29;77.49;100143.00;2215365;40;20049;-78
2021/06/11 04:48:13;;;;;;;13.70;8.27;;;;;;;17.33;77.53;100145.34;2215289;39;20044;-78
2021/06/11 04:49:46;;;;;;;12.93;8.73;;;;;;;17.32;77.61;100149.94;2223013;40;20098;-79
2021/06/11 04:51:18;;;;;;;12.38;8.43;;;;;;;17.36;77.77;100150.38;2220115;39;20037;-79
2021/06/11 04:52:50;;;;;;;9.32;7.53;;;;;;;17.35;77.62;100148.72;2222830;40;20414;-78
2021/06/11 04:54:21;;;;;;;9.68;8.27;;;;;;;17.38;77.26;100149.16;2220157;40;20029;-79
2021/06/11 04:55:52;;;;;;;10.60;8.27;;;;;;;17.40;77.41;100154.38;2219996;40;20046;-78
2021/06/11 04:57:23;;;;;;;13.57;8.25;;;;;;;17.47;77.38;100158.03;2217118;39;20429;-80
2021/06/11 04:58:55;;;;;;;12.70;7.47;;;;;;;17.52;77.51;100155.59;2224167;40;20380;-79
2021/06/11 05:00:26;;;;;;;11.60;9.02;;;;;;;17.53;77.19;100162.69;2223284;39;20033;-77
2021/06/11 05:01:58;;;;;;;13.13;10.15;;;;;;;17.52;76.95;100154.75;2224842;40;20033;-78
2021/06/11 05:03:29;;;;;;;15.70;10.25;;;;;;;17.44;77.38;100161.09;2224236;40;20213;-79
2021/06/11 05:05:02;;;;;;;13.90;9.48;;;;;;;17.35;77.27;100159.50;2224916;40;20428;-80
2021/06/11 05:06:33;;;;;;;15.45;10.50;;;;;;;17.30;77.80;100155.50;2217453;39;20041;-80
2021/06/11 05:08:05;;;;;;;16.92;15.20;;;;;;;17.25;77.85;100159.78;2223760;40;20029;-80
2021/06/11 05:09:37;;;;;;;17.13;15.32;;;;;;;17.21;77.78;100156.63;2222343;39;20068;-80
2021/06/11 05:11:08;;;;;;;17.83;16.00;;;;;;;17.19;78.16;100161.38;2217934;40;20150;-79
2021/06/11 05:12:39;;;;;;;18.55;15.73;;;;;;;17.16;78.02;100164.44;2217493;40;20029;-79
2021/06/11 05:14:11;;;;;;;16.83;14.30;;;;;;;17.15;78.12;100154.66;2222824;40;20041;-79
2021/06/11 05:15:42;;;;;;;17.45;15.63;;;;;;;17.16;78.41;100156.34;2220382;39;20049;-79
2021/06/11 05:17:13;;;;;;;22.30;19.85;;;;;;;17.16;78.19;100156.34;2222158;40;20025;-79
2021/06/11 05:18:44;;;;;;;23.38;19.15;;;;;;;17.21;78.10;100159.31;2218841;39;20045;-79
2021/06/11 05:20:17;;;;;;;23.45;21.13;;;;;;;17.26;78.05;100162.31;2223045;40;20030;-80
2021/06/11 05:21:49;;;;;;;24.05;19.95;;;;;;;17.29;78.25;100159.22;2219388;40;20589;-79
2021/06/11 05:23:20;;;;;;;22.38;19.20;;;;;;;17.37;78.02;100157.47;2222974;40;20040;-79
2021/06/11 05:24:51;;;;;;;17.35;15.63;;;;;;;17.43;77.92;100165.66;2219081;39;20346;-79
2021/06/11 05:26:23;;;;;;;22.33;17.33;;;;;;;17.53;77.50;100151.88;2220928;40;20086;-79
2021/06/11 05:27:54;;;;;;;17.58;15.70;;;;;;;17.62;77.22;100155.28;2214976;40;20042;-78
2021/06/11 05:29:25;;;;;;;14.27;11.18;;;;;;;17.72;77.22;100160.41;2216524;40;20128;-79
2021/06/11 05:30:57;;;;;;;13.60;12.20;;;;;;;17.80;77.03;100151.38;2220226;40;20065;-79
2021/06/11 05:32:28;;;;;;;13.85;12.15;;;;;;;17.86;76.85;100156.00;2219510;40;20026;-79
2021/06/11 05:33:59;;;;;;;12.25;10.50;;;;;;;17.91;76.56;100154.41;2215059;40;20390;-79
2021/06/11 05:35:32;;;;;;;14.90;11.70;;;;;;;17.98;76.66;100154.53;2219236;40;20104;-80
2021/06/11 05:37:05;;;;;;;13.45;10.75;;;;;;;18.05;76.19;100159.97;2221282;39;20049;-80
2021/06/11 05:38:37;;;;;;;15.23;11.30;;;;;;;18.10;75.97;100157.56;2218824;40;20111;-79
2021/06/11 05:40:08;;;;;;;16.40;13.95;;;;;;;18.19;75.67;100161.81;2211251;40;20354;-79
2021/06/11 05:41:40;;;;;;;18.55;15.90;;;;;;;18.26;75.70;100161.88;2216305;40;20072;-79
2021/06/11 05:43:11;;;;;;;16.20;12.88;;;;;;;18.27;75.49;100163.56;2219405;40;20061;-80
2021/06/11 05:44:42;;;;;;;18.95;15.00;;;;;;;18.31;75.14;100159.44;2223047;40;20041;-80
2021/06/11 05:46:14;;;;;;;19.33;15.68;;;;;;;18.35;75.08;100159.88;2221580;39;20060;-79
2021/06/11 05:47:45;;;;;;;20.45;18.25;;;;;;;18.35;75.16;100165.28;2222586;40;20440;-80
2021/06/11 05:49:16;;;;;;;19.23;17.17;;;;;;;18.29;75.11;100166.06;2216738;39;20064;-80
2021/06/11 05:50:49;;;;;;;16.80;14.02;;;;;;;18.20;75.35;100166.19;2218000;40;20413;-79
2021/06/11 05:52:21;;;;;;;17.77;15.98;;;;;;;18.29;75.26;100166.06;2219818;40;20028;-80
2021/06/11 05:53:53;;;;;;;17.65;14.63;;;;;;;18.24;75.25;100164.78;2222834;40;20060;-80
2021/06/11 05:55:25;;;;;;;16.17;13.35;;;;;;;18.28;75.39;100172.50;2211078;40;20457;-80
2021/06/11 05:56:57;;;;;;;14.93;13.40;;;;;;;18.28;75.13;100173.34;2216278;40;20045;-80
2021/06/11 05:58:28;;;;;;;13.38;10.15;;;;;;;18.32;75.09;100176.53;2219521;40;20060;-80
2021/06/11 05:59:59;;;;;;;13.38;11.95;;;;;;;18.39;74.93;100178.25;2217880;40;20050;-79
2021/06/11 06:01:31;;;;;;;9.80;8.75;;;;;;;18.46;74.42;100162.06;2216151;40;20388;-80
2021/06/11 06:03:02;;;;;;;12.07;10.60;;;;;;;18.58;74.31;100166.97;2216737;40;20037;-79
2021/06/11 06:04:34;;;;;;;15.27;12.57;;;;;;;18.66;73.80;100172.25;2215458;40;20049;-79
2021/06/11 06:06:06;;;;;;;14.20;12.23;;;;;;;18.63;73.96;100168.06;2216465;40;20040;-80
2021/06/11 06:07:38;;;;;;;15.23;13.63;;;;;;;18.60;73.95;100173.03;2215364;40;20049;-80
2021/06/11 06:09:09;;;;;;;13.20;11.23;;;;;;;18.60;74.22;100168.44;2214555;40;20040;-80
2021/06/11 06:10:41;;;;;;;14.55;12.18;;;;;;;18.65;74.10;100173.28;2210961;40;20121;-80
2021/06/11 06:12:12;;;;;;;15.10;12.02;;;;;;;18.65;73.91;100171.44;2216779;40;20045;-80
2021/06/11 06:13:44;;;;;;;18.40;16.17;;;;;;;18.66;73.96;100173.06;2217544;40;20030;-82
2021/06/11 06:15:15;;;;;;;18.70;14.18;;;;;;;18.63;73.86;100173.47;2215412;40;20040;-81
2021/06/11 06:16:47;;;;;;;19.92;13.93;;;;;;;18.64;73.77;100174.31;2215904;40;20440;-81
2021/06/11 06:18:18;;;;;;;13.60;12.20;;;;;;;18.68;73.85;100176.44;2215060;40;20116;-80
2021/06/11 06:19:49;;;;;;;15.45;13.00;;;;;;;18.75;73.44;100171.06;2222817;40;20090;-80
2021/06/11 06:21:23;;;;;;;14.73;12.13;;;;;;;18.75;73.59;100173.78;2220264;39;20028;-80
2021/06/11 06:22:55;;;;;;;19.67;11.93;;;;;;;18.72;73.68;100166.03;2216521;40;20030;-80
2021/06/11 06:24:26;;;;;;;12.50;11.20;;;;;;;18.80;73.29;100168.59;2215290;40;20030;-80
2021/06/11 06:25:57;;;;;;;13.80;10.85;;;;;;;18.88;73.41;100170.34;2216967;40;20025;-81
2021/06/11 06:27:28;;;;;;;12.32;10.05;;;;;;;18.92;73.19;100171.63;2215669;40;20041;-80
2021/06/11 06:28:59;;;;;;;12.18;10.65;;;;;;;18.99;73.20;100171.69;2216826;40;20038;-81
2021/06/11 06:30:30;;;;;;;10.88;9.68;;;;;;;19.07;72.50;100166.16;2217791;40;20429;-81
2021/06/11 06:32:04;;;;;;;13.07;11.68;;;;;;;19.14;72.51;100161.59;2216704;40;20040;-81
2021/06/11 06:33:35;;;;;;;12.30;10.65;;;;;;;19.20;71.97;100173.53;2215013;39;20104;-79
2021/06/11 06:35:08;;;;;;;13.52;11.25;;;;;;;19.31;71.88;100174.84;2216043;40;20051;-80
2021/06/11 06:36:42;;;;;;;11.90;10.02;;;;;;;19.37;71.55;100163.19;2219828;40;20059;-81
2021/06/11 06:38:14;;;;;;;13.63;10.95;;;;;;;19.34;72.14;100158.19;2220637;40;20198;-81
2021/06/11 06:39:45;;;;;;;16.50;11.60;;;;;;;19.36;72.04;100166.97;2216609;39;20041;-80
2021/06/11 06:41:17;;;;;;;17.13;12.50;;;;;;;19.44;71.98;100164.09;2219951;40;20044;-81
2021/06/11 06:42:48;;;;;;;13.77;10.52;;;;;;;19.48;71.70;100159.09;2221479;39;20199;-80
2021/06/11 06:44:19;;;;;;;12.75;11.20;;;;;;;19.46;71.67;100158.44;2223361;40;20041;-80
2021/06/11 06:45:51;;;;;;;16.63;12.65;;;;;;;19.47;71.72;100155.53;2220705;39;20055;-80
2021/06/11 06:47:22;;;;;;;13.63;12.23;;;;;;;19.47;71.31;100160.94;2216917;40;20581;-81
2021/06/11 06:48:54;;;;;;;14.32;11.02;;;;;;;19.51;71.45;100161.38;2216785;39;20349;-81
2021/06/11 06:50:25;;;;;;;13.23;10.63;;;;;;;19.58;71.42;100161.41;2216875;40;20034;-81
2021/06/11 06:51:57;;;;;;;12.85;10.88;;;;;;;19.66;71.18;100161.25;2217253;40;20045;-81
2021/06/11 06:53:29;;;;;;;14.48;11.57;;;;;;;19.74;70.87;100163.78;2210610;40;20072;-81
2021/06/11 06:54:59;;;;;;;14.18;11.88;;;;;;;19.83;70.68;100166.34;2215228;40;20045;-81
2021/06/11 06:56:31;;;;;;;13.23;10.65;;;;;;;19.88;70.32;100163.88;2223488;40;20040;-80
2021/06/11 06:58:03;;;;;;;14.02;10.10;;;;;;;19.96;70.08;100166.41;2217699;39;20049;-81
2021/06/11 06:59:34;;;;;;;10.30;8.95;;;;;;;20.13;69.67;100166.03;2216275;40;20049;-81
2021/06/11 07:01:05;;;;;;;11.45;9.52;;;;;;;20.25;69.53;100158.97;2220151;40;20052;-81
2021/06/11 07:02:36;;;;;;;10.93;9.65;;;;;;;20.32;69.11;100161.69;2221339;40;20046;-79
2021/06/11 07:04:08;;;;;;;11.18;9.27;;;;;;;20.51;68.72;100152.75;2221180;39;20458;-79
2021/06/11 07:05:39;;;;;;;13.52;10.15;;;;;;;20.71;67.99;100151.91;2219132;40;20100;-79